Weather at Greater Kankakee Airport

Public forecast

Using degrees Fahrenheit for public forecast. Weather courtesy of forecast.io.

Current aviation weather report (METAR) for Greater Kankakee Airport

Retrieved 2021/05/16 01:15 UTC (10 minutes ago):

KIKK 160115Z AUTO 00000KT 10SM OVC070 15/09 A3018 RMK AO2 T01490088

Closest aviation forecast (TAF) to Greater Kankakee Airport

Closest forecast is Gary Chicago International Airport, 38.1 nm (70.6 km) NNE. Retrieved 2021-05-16 00:21 UTC (1 hour ago):

TAF KGYY 152320Z 1600/1624 15007KT P6SM VCSH SCT050 OVC070 FM160400 16004KT P6SM SCT030 OVC035 FM161700 05010KT P6SM SCT040 BKN250